Latest Weather Observations for Geraldton Airport

IDW60801

Issued at 10:33 am WST Tuesday 6 December 2016 (issued every 30 minutes, with the page automatically refreshed every 10 minutes)

About weather observations | Map of weather stations | Latest weather observations for WA | Other Formats
Station Details ID: 008315 Name: GERALDTON AIRPORT Lat: -28.80 Lon: 114.70 Height: 29.7 m
Data from the previous 72 hours. | See also: Recent months at Geraldton Airport
Date/Time
WST
Temp
°C
App
Temp
°C
Dew
Point
°C
Rel
Hum
%
Delta-T
°C
Wind Press
QNH
hPa
Press
MSL
hPa
Rain since
9am
mm
Dir  Spd
km/h
Gust
km/h
Spd
kts
Gust
kts
06/10:00am 23.1 19.5 11.8 49 6.4 S 22 37 12 20 1015.4 - 0.0
06/09:30am 22.9 18.6 11.9 50 6.2 S 26 33 14 18 1015.5 - 0.0
06/09:00am 22.0 17.5 11.4 51 5.9 S 26 39 14 21 1015.7 1015.6 0.0
06/08:30am 21.3 16.2 10.6 50 5.9 SSE 28 35 15 19 1015.6 - 0.0
06/08:00am 20.3 15.3 10.8 54 5.2 SSE 28 41 15 22 1015.8 - 0.0
06/07:30am 18.8 14.2 12.3 66 3.6 SSE 28 39 15 21 1016.1 - 0.0
06/07:00am 16.4 13.4 12.1 76 2.4 SSE 19 28 10 15 1016.1 - 0.0
06/06:30am 14.0 11.2 11.4 84 1.4 SSE 17 22 9 12 1016.2 - 0.0
06/06:00am 12.7 10.9 11.0 89 0.9 SSE 11 15 6 8 1016.1 1016.0 0.0
06/05:30am 11.0 8.5 9.6 91 0.7 SSE 13 17 7 9 1015.7 - 0.0
06/05:00am 11.2 9.4 9.6 90 0.8 SSE 9 11 5 6 1015.7 - 0.0
06/04:30am 11.2 9.0 9.5 89 0.9 S 11 13 6 7 1015.7 - 0.0
06/04:00am 11.6 9.5 9.6 87 1.0 SSE 11 13 6 7 1015.7 - 0.0
06/03:30am 12.6 10.2 10.1 85 1.3 SSE 13 15 7 8 1015.6 - 0.0
06/03:00am 13.2 11.3 10.5 84 1.4 SE 11 15 6 8 1015.8 1015.7 0.0
06/02:30am 13.9 11.2 10.5 80 1.8 SE 15 17 8 9 1015.7 - 0.0
06/02:00am 14.3 11.3 10.7 79 1.9 SE 17 20 9 11 1015.6 - 0.0
06/01:30am 14.9 11.4 10.8 76 2.2 SSE 20 24 11 13 1015.7 - 0.0
06/01:00am 14.8 12.3 10.9 77 2.1 SE 15 19 8 10 1015.6 - 0.0
06/12:30am 15.3 12.3 10.8 74 2.4 SSE 17 20 9 11 1015.7 - 0.0
06/12:00am 16.0 12.7 10.8 71 2.8 SE 19 26 10 14 1015.7 1015.6 0.0
 
Date/Time
WST
Temp
°C
App
Temp
°C
Dew
Point
°C
Rel
Hum
%
Delta-T
°C
Wind Press
QNH
hPa
Press
MSL
hPa
Rain since
9am
mm
Dir  Spd
km/h
Gust
km/h
Spd
kts
Gust
kts
05/11:30pm 16.3 13.0 10.9 70 2.9 SE 19 26 10 14 1015.8 - 0.0
05/11:00pm 16.5 13.1 10.7 68 3.1 SSE 19 24 10 13 1016.0 - 0.0
05/10:30pm 16.9 13.0 10.9 67 3.2 SSE 22 28 12 15 1016.0 - 0.0
05/10:00pm 18.2 13.5 12.1 67 3.4 S 28 39 15 21 1016.1 - 0.0
05/09:30pm 18.1 13.7 11.8 66 3.5 S 26 35 14 19 1016.0 - 0.0
05/09:00pm 18.3 13.2 11.8 66 3.6 S 30 41 16 22 1015.8 1015.7 0.0
05/08:30pm 18.2 13.0 11.7 66 3.6 S 30 44 16 24 1015.6 - 0.0
05/08:00pm 18.5 12.7 11.6 64 3.8 S 33 44 18 24 1015.3 - 0.0
05/07:30pm 18.6 13.1 11.7 64 3.8 S 32 48 17 26 1014.8 - 0.0
05/07:00pm 19.0 13.0 12.2 64 3.8 S 35 48 19 26 1014.5 - 0.0
05/06:37pm 19.4 13.2 11.4 60 4.4 S 35 54 19 29 1014.4 - 0.0
05/06:30pm 19.5 13.0 11.7 60 4.3 S 37 46 20 25 1014.4 - 0.0
05/06:00pm 20.3 14.0 11.2 56 5.0 S 35 46 19 25 1014.0 1013.9 0.0
05/05:30pm 20.7 14.1 11.3 55 5.2 S 37 56 20 30 1013.9 - 0.0
05/05:28pm 20.7 14.1 11.3 55 5.2 S 37 56 20 30 1013.7 - 0.0
05/05:07pm 21.1 14.2 11.6 54 5.3 SSE 39 44 21 24 1013.5 - 0.0
05/05:00pm 21.1 14.9 11.3 53 5.4 S 35 46 19 25 1013.5 - 0.0
05/04:30pm 21.7 15.5 11.3 51 5.8 S 35 46 19 25 1013.4 - 0.0
05/04:00pm 22.1 15.7 10.7 48 6.3 S 35 50 19 27 1013.4 - 0.0
05/03:30pm 22.8 16.3 10.4 45 6.8 S 35 50 19 27 1013.5 - 0.0
05/03:00pm 22.6 16.4 11.3 48 6.3 S 35 46 19 25 1013.5 1013.4 0.0
05/02:30pm 21.8 15.3 10.3 48 6.3 SSW 35 50 19 27 1013.6 - 0.0
05/02:09pm 22.6 16.0 10.0 44 6.9 S 35 54 19 29 1013.6 - 0.0
05/02:00pm 23.3 16.8 10.3 43 7.1 S 35 46 19 25 1013.8 - 0.0
05/01:30pm 22.5 16.1 10.6 47 6.6 SSW 35 48 19 26 1013.5 - 0.0
05/01:00pm 23.0 16.3 9.5 42 7.3 SSW 35 46 19 25 1013.6 - 0.0
05/12:30pm 23.2 17.4 10.8 45 6.9 SSW 32 46 17 25 1013.7 - 0.0
05/12:00pm 22.2 16.1 9.8 45 6.7 S 32 39 17 21 1014.0 1013.9 0.0
05/11:30am 22.7 17.2 10.5 46 6.7 S 30 44 16 24 1014.2 - 0.0
05/11:00am 22.6 17.0 10.2 45 6.8 S 30 41 16 22 1014.1 - 0.0
05/10:45am 21.9 16.0 10.3 47 6.3 S 32 50 17 27 1014.2 - 0.0
05/10:30am 22.2 16.3 10.3 46 6.5 S 32 43 17 23 1014.2 - 0.0
05/10:00am 22.3 16.3 10.7 47 6.4 S 33 43 18 23 1014.5 - 0.0
05/09:30am 21.1 15.2 11.1 52 5.5 S 33 44 18 24 1014.4 - 0.0
05/09:00am 21.2 15.9 11.3 53 5.5 S 30 41 16 22 1014.3 1014.2 0.0
05/08:30am 20.9 15.4 10.6 51 5.6 SSE 30 39 16 21 1014.4 - 0.0
05/08:00am 19.1 13.9 10.1 56 4.8 SSE 28 39 15 21 1014.5 - 0.0
05/07:30am 17.8 12.6 10.1 60 4.1 SSE 28 37 15 20 1014.7 - 0.0
05/07:00am 16.7 11.5 10.1 65 3.5 SSE 28 35 15 19 1014.6 - 0.0
05/06:30am 16.1 11.9 9.8 66 3.3 SE 22 28 12 15 1014.4 - 0.0
05/06:00am 15.6 12.0 9.7 68 3.1 SE 19 24 10 13 1014.2 1014.1 0.0
05/05:30am 14.8 11.5 9.4 70 2.8 SE 17 24 9 13 1014.0 - 0.0
05/05:00am 14.7 11.7 9.3 70 2.8 SE 15 20 8 11 1013.7 - 0.0
05/04:30am 14.2 11.5 9.1 71 2.6 SE 13 17 7 9 1013.4 - 0.0
05/04:00am 14.0 11.3 8.9 71 2.6 SE 13 17 7 9 1013.2 - 0.0
05/03:30am 14.3 11.2 9.0 70 2.7 SE 15 19 8 10 1012.7 - 0.0
05/03:00am 14.2 11.5 8.9 70 2.7 SE 13 15 7 8 1012.5 1012.4 0.0
05/02:30am 14.4 10.9 8.9 69 2.8 SE 17 20 9 11 1012.5 - 0.0
05/02:00am 14.7 11.2 8.8 68 3.0 SE 17 20 9 11 1012.4 - 0.0
05/01:30am 15.1 11.3 9.0 67 3.1 SE 19 24 10 13 1012.4 - 0.0
05/01:00am 15.3 11.5 9.1 66 3.2 SE 19 26 10 14 1012.5 - 0.0
05/12:30am 15.0 11.7 9.4 69 2.9 SSE 17 22 9 12 1012.6 - 0.0
05/12:00am 14.9 12.0 9.8 71 2.6 SSE 15 19 8 10 1012.7 1012.6 0.0
 
Date/Time
WST
Temp
°C
App
Temp
°C
Dew
Point
°C
Rel
Hum
%
Delta-T
°C
Wind Press
QNH
hPa
Press
MSL
hPa
Rain since
9am
mm
Dir  Spd
km/h
Gust
km/h
Spd
kts
Gust
kts
04/11:30pm 15.7 12.9 10.0 69 3.0 SE 15 20 8 11 1012.8 - 0.0
04/11:00pm 17.8 13.3 11.3 65 3.5 S 26 33 14 18 1012.7 - 0.0
04/10:30pm 17.8 13.7 11.4 66 3.5 S 24 35 13 19 1012.9 - 0.0
04/10:00pm 18.1 13.2 11.4 65 3.7 S 28 39 15 21 1013.0 - 0.0
04/09:30pm 18.1 13.4 11.9 67 3.4 S 28 39 15 21 1013.2 - 0.0
04/09:00pm 18.3 14.3 11.7 65 3.6 S 24 39 13 21 1013.2 1013.1 0.0
04/08:30pm 18.4 13.6 11.7 65 3.7 S 28 43 15 23 1012.9 - 0.0
04/08:00pm 18.5 14.2 12.0 66 3.6 S 26 33 14 18 1012.8 - 0.0
04/07:30pm 18.9 13.3 11.6 62 4.0 S 32 43 17 23 1012.5 - 0.0
04/07:00pm 19.4 13.7 11.0 58 4.6 S 32 39 17 21 1012.3 - 0.0
04/06:30pm 20.1 14.4 11.2 56 4.9 S 32 44 17 24 1012.1 - 0.0
04/06:00pm 21.1 15.5 11.6 54 5.3 S 32 46 17 25 1012.0 1011.9 0.0
04/05:30pm 21.5 15.5 10.8 50 5.9 S 33 43 18 23 1011.5 - 0.0
04/05:00pm 21.9 15.0 10.4 48 6.3 SSW 37 46 20 25 1011.5 - 0.0
04/04:30pm 23.1 17.3 11.4 47 6.6 SSW 33 43 18 23 1011.3 - 0.0
04/04:00pm 23.5 17.5 10.0 42 7.4 S 32 41 17 22 1011.3 - 0.0
04/03:30pm 23.7 17.7 8.8 38 8.0 S 30 37 16 20 1011.3 - 0.0
04/03:00pm 23.9 18.1 9.4 39 7.9 SSW 30 43 16 23 1011.4 1011.3 0.0
04/02:30pm 24.2 18.1 9.8 40 7.9 S 32 41 17 22 1011.7 - 0.0
04/02:00pm 24.0 18.2 9.5 39 7.9 S 30 39 16 21 1012.0 - 0.0
04/01:30pm 25.8 20.5 10.0 37 8.8 S 28 35 15 19 1012.1 - 0.0
04/01:00pm 24.3 19.1 10.2 41 7.8 S 28 35 15 19 1012.3 - 0.0
04/12:30pm 23.7 18.3 11.0 44 7.1 SSW 30 41 16 22 1012.4 - 0.0
04/12:00pm 24.2 18.7 10.6 42 7.6 S 30 39 16 21 1012.6 1012.5 0.0
04/11:30am 24.4 19.9 11.3 43 7.4 SSW 26 37 14 20 1012.8 - 0.0
04/11:00am 23.7 19.6 10.2 42 7.4 S 22 32 12 17 1012.8 - 0.0
04/10:30am 23.3 19.7 11.8 48 6.5 S 22 30 12 16 1013.3 - 0.0
04/10:00am 24.4 21.5 11.0 43 7.5 S 17 32 9 17 1013.3 - 0.0
04/09:30am 21.9 18.4 10.2 47 6.4 S 19 28 10 15 1013.4 - 0.0
04/09:00am 21.7 19.0 13.0 57 5.0 SSE 19 26 10 14 1013.5 1013.4 0.6
04/08:30am 20.4 17.1 14.1 67 3.7 SSE 24 32 13 17 1013.4 - 0.6
04/08:00am 19.5 16.8 15.5 77 2.4 SE 24 30 13 16 1013.4 - 0.6
04/07:30am 18.7 17.0 16.2 85 1.5 SE 20 30 11 16 1013.1 - 0.6
04/07:00am 18.4 17.8 16.6 89 1.1 SE 15 24 8 13 1013.0 - 0.6
04/06:30am 18.1 18.4 16.9 93 0.7 SSE 11 13 6 7 1012.7 - 0.6
04/06:00am 17.6 17.2 16.3 92 0.8 SE 13 17 7 9 1012.5 1012.4 0.6
04/05:53am 17.4 16.7 16.4 94 0.6 SE 15 20 8 11 1012.4 - 0.6
04/05:30am 17.4 16.8 16.6 95 0.5 SSE 15 20 8 11 1012.3 - 0.6
04/05:16am 17.4 16.4 16.6 95 0.5 SE 17 22 9 12 1012.2 - 0.6
04/05:00am 17.6 16.7 16.9 96 0.4 SE 17 24 9 13 1012.1 - 0.6
04/04:35am 17.7 18.6 16.7 94 0.6 S 7 9 4 5 1011.8 - 0.6
04/04:31am 17.8 19.0 16.8 94 0.6 SSE 6 7 3 4 1011.7 - 0.6
04/04:30am 17.8 19.0 16.8 94 0.6 SSE 6 7 3 4 1011.7 - 0.6
04/04:02am 18.3 20.6 16.8 91 0.9 CALM 0 0 0 0 1011.5 - 0.0
04/04:00am 18.3 20.6 16.8 91 0.9 CALM 0 0 0 0 1011.5 - 0.0
04/03:30am 18.3 19.4 16.7 90 1.0 SSW 6 7 3 4 1011.3 - 0.0
04/03:16am 18.2 19.2 16.4 89 1.1 SW 6 9 3 5 1011.3 - 0.0
04/03:00am 17.7 19.2 15.6 87 1.2 E 2 9 1 5 1011.3 1011.2 0.0
04/02:58am 17.4 18.7 15.2 87 1.3 ENE 2 6 1 3 1011.4 - 0.0
04/02:30am 16.5 16.8 14.5 88 1.1 ENE 6 6 3 3 1011.2 - 0.0
04/02:00am 15.7 15.7 13.6 87 1.2 ESE 6 9 3 5 1011.2 - 0.0
04/01:30am 17.1 16.4 14.3 83 1.6 SSW 11 13 6 7 1011.3 - 0.0
04/01:00am 17.5 17.0 14.8 84 1.6 SSW 11 13 6 7 1011.4 - 0.0
04/12:30am 18.5 17.3 15.1 80 2.0 SSW 15 20 8 11 1011.6 - 0.0
04/12:00am 18.9 19.3 15.2 79 2.2 SSW 7 11 4 6 1011.7 1011.6 0.0
 
Date/Time
WST
Temp
°C
App
Temp
°C
Dew
Point
°C
Rel
Hum
%
Delta-T
°C
Wind Press
QNH
hPa
Press
MSL
hPa
Rain since
9am
mm
Dir  Spd
km/h
Gust
km/h
Spd
kts
Gust
kts
03/11:30pm 18.0 18.2 14.8 81 1.9 SSW 7 9 4 5 1011.9 - 0.0
03/11:00pm 17.9 17.6 14.4 80 2.0 S 9 9 5 5 1012.0 - 0.0
03/10:30pm 18.8 17.8 14.7 77 2.4 S 13 17 7 9 1012.2 - 0.0
03/10:00pm 19.7 19.9 14.6 72 3.0 S 7 13 4 7 1012.2 - 0.0
03/09:30pm 19.0 18.6 14.2 73 2.8 S 9 13 5 7 1012.3 - 0.0
03/09:00pm 18.2 17.0 14.0 76 2.4 SSW 13 15 7 8 1012.1 1012.0 0.0
03/08:30pm 18.4 16.8 13.9 75 2.6 SSW 15 19 8 10 1011.9 - 0.0
03/08:00pm 18.7 16.7 13.9 73 2.8 SSW 17 22 9 12 1011.8 - 0.0
03/07:30pm 18.8 16.6 13.3 70 3.1 SSW 17 24 9 13 1011.7 - 0.0
03/07:00pm 19.4 16.6 13.2 67 3.5 SSW 20 26 11 14 1011.5 - 0.0
03/06:30pm 20.1 16.6 13.3 65 3.9 SSW 24 32 13 17 1011.2 - 0.0
03/06:00pm 20.5 16.8 12.6 60 4.5 SSW 24 32 13 17 1010.9 1010.8 0.0
03/05:30pm 21.4 17.7 12.6 57 5.0 SSW 24 32 13 17 1010.7 - 0.0
03/05:00pm 21.5 17.4 12.6 57 5.1 SSW 26 33 14 18 1010.7 - 0.0
03/04:30pm 21.6 16.9 12.1 54 5.3 SSW 28 37 15 20 1010.4 - 0.0
03/04:00pm 22.4 17.3 12.0 51 5.9 SSW 30 39 16 21 1010.3 - 0.0
03/03:30pm 22.4 17.6 11.6 50 6.0 SW 28 39 15 21 1010.2 - 0.0
03/03:00pm 22.1 17.2 11.2 50 6.1 SW 28 41 15 22 1010.4 1010.3 0.0
03/02:30pm 22.8 18.2 10.9 47 6.6 SW 26 39 14 21 1010.4 - 0.0
03/02:00pm 22.7 17.3 10.8 47 6.6 SW 30 41 16 22 1010.5 - 0.0
03/01:30pm 22.8 18.0 10.2 44 6.9 SW 26 35 14 19 1010.6 - 0.0
03/01:00pm 22.7 18.3 10.3 45 6.8 SW 24 35 13 19 1010.7 - 0.0
03/12:30pm 22.1 17.3 10.3 47 6.4 SSW 26 39 14 21 1010.7 - 0.0
03/12:00pm 21.8 17.8 10.3 48 6.3 SSW 22 33 12 18 1010.9 1010.8 0.0
03/11:30am 22.6 18.6 10.5 46 6.7 SSW 22 35 12 19 1010.8 - 0.0
03/11:00am 22.2 17.9 10.8 48 6.3 SSW 24 37 13 20 1010.7 - 0.0

Other Formats:

Comma delimited format used in spreadsheet applications
http://www.bom.gov.au/fwo/IDW60801/IDW60801.94403.axf

JavaScript Object Notation format (JSON) in row-major order
http://www.bom.gov.au/fwo/IDW60801/IDW60801.94403.json